Time;durP1;ratioP1;P1;durP2;ratioP2;P2;SDS_P1;SDS_P2;PMS_P1;PMS_P2;Temp;Humidity;BMP_temperature;BMP_pressure;BME280_temperature;BME280_humidity;BME280_pressure;Samples;Min_cycle;Max_cycle;Signal;HPM_P1;HPM_P2
2022/08/06 00:02:23;;;;;;;0.90;0.83;;;;;;;;;;4920433;28;20218;-74
2022/08/06 00:04:51;;;;;;;1.27;1.00;;;;;;;;;;4932138;29;20289;-75
2022/08/06 00:07:20;;;;;;;0.80;0.80;;;;;;;;;;4947751;28;20229;-75
2022/08/06 00:09:45;;;;;;;2.17;0.97;;;;;;;;;;4905284;29;20227;-74
2022/08/06 00:12:16;;;;;;;1.10;1.00;;;;;;;;;;4924665;28;20318;-74
2022/08/06 00:14:44;;;;;;;1.23;0.90;;;;;;;;;;4916967;29;20243;-76
2022/08/06 00:17:09;;;;;;;1.13;1.03;;;;;;;;;;4929575;28;20667;-74
2022/08/06 00:19:35;;;;;;;1.17;1.00;;;;;;;;;;4938208;29;20219;-73
2022/08/06 00:22:03;;;;;;;2.43;1.20;;;;;;;;;;4907043;29;20235;-75
2022/08/06 00:24:28;;;;;;;1.60;1.10;;;;;;;;;;4932240;29;20227;-74
2022/08/06 00:26:54;;;;;;;2.50;1.00;;;;;;;;;;4931780;29;20254;-73
2022/08/06 00:29:20;;;;;;;4.77;1.00;;;;;;;;;;4927250;28;20577;-75
2022/08/06 00:31:45;;;;;;;0.70;0.70;;;;;;;;;;4926381;29;20221;-74
2022/08/06 00:34:11;;;;;;;1.43;1.00;;;;;;;;;;4946149;28;20226;-73
2022/08/06 00:36:36;;;;;;;1.63;1.07;;;;;;;;;;4925037;29;20234;-74
2022/08/06 00:39:03;;;;;;;1.87;0.90;;;;;;;;;;4914974;29;21073;-74
2022/08/06 00:41:31;;;;;;;0.80;0.80;;;;;;;;;;4930393;29;20223;-74
2022/08/06 00:44:02;;;;;;;1.63;0.90;;;;;;;;;;4914677;29;20237;-74
2022/08/06 00:46:28;;;;;;;3.10;1.00;;;;;;;;;;4929845;28;20246;-73
2022/08/06 00:48:53;;;;;;;1.13;0.90;;;;;;;;;;4926524;29;20227;-75
2022/08/06 00:51:19;;;;;;;0.80;0.80;;;;;;;;;;4902645;28;20231;-73
2022/08/06 00:53:44;;;;;;;2.03;0.83;;;;;;;;;;4913123;29;20345;-74
2022/08/06 00:56:10;;;;;;;1.30;0.93;;;;;;;;;;4925980;28;20226;-74
2022/08/06 00:58:38;;;;;;;0.97;0.90;;;;;;;;;;4956979;28;20227;-75
2022/08/06 01:01:06;;;;;;;1.10;1.00;;;;;;;;;;4907407;28;20705;-74
2022/08/06 01:03:36;;;;;;;1.80;0.90;;;;;;;;;;4929272;29;20304;-73
2022/08/06 01:06:04;;;;;;;2.00;0.80;;;;;;;;;;4922371;29;20330;-74
2022/08/06 01:08:32;;;;;;;1.33;0.87;;;;;;;;;;4916999;28;20226;-74
2022/08/06 01:10:59;;;;;;;1.07;1.00;;;;;;;;;;4939504;28;20223;-74
2022/08/06 01:13:27;;;;;;;1.90;0.80;;;;;;;;;;4941605;28;20251;-74
2022/08/06 01:16:05;;;;;;;1.17;0.87;;;;;;;;;;4911209;29;20711;-74
2022/08/06 01:18:31;;;;;;;1.00;1.00;;;;;;;;;;4929961;28;20750;-74
2022/08/06 01:21:15;;;;;;;3.23;0.80;;;;;;;;;;4923616;29;20358;-74
2022/08/06 01:24:19;;;;;;;1.23;1.13;;;;;;;;;;4958946;28;20231;-73
2022/08/06 01:27:25;;;;;;;1.50;1.03;;;;;;;;;;4939388;28;20230;-72
2022/08/06 01:29:52;;;;;;;5.20;1.13;;;;;;;;;;4938834;28;20239;-75
2022/08/06 01:32:25;;;;;;;2.87;1.20;;;;;;;;;;4927550;28;20218;-72
2022/08/06 01:34:57;;;;;;;2.37;1.00;;;;;;;;;;4939271;28;20369;-75
2022/08/06 01:37:45;;;;;;;0.80;0.80;;;;;;;;;;4938161;28;20273;-74
2022/08/06 01:40:19;;;;;;;2.27;1.20;;;;;;;;;;4927873;28;20974;-74
2022/08/06 01:42:45;;;;;;;1.53;1.10;;;;;;;;;;4928594;29;20674;-75
2022/08/06 01:45:12;;;;;;;2.97;1.13;;;;;;;;;;4927337;28;20646;-74
2022/08/06 01:47:38;;;;;;;1.87;1.30;;;;;;;;;;4912230;29;20233;-75
2022/08/06 01:50:05;;;;;;;1.37;1.10;;;;;;;;;;4913536;28;20262;-75
2022/08/06 01:52:36;;;;;;;1.07;1.00;;;;;;;;;;4921983;29;20269;-75
2022/08/06 01:55:05;;;;;;;1.90;1.00;;;;;;;;;;4924070;29;20227;-74
2022/08/06 01:57:37;;;;;;;1.43;0.90;;;;;;;;;;4938207;29;20238;-75
2022/08/06 02:00:04;;;;;;;0.97;0.87;;;;;;;;;;4927705;28;20250;-75
2022/08/06 02:02:37;;;;;;;1.33;0.70;;;;;;;;;;4939302;28;20709;-74
2022/08/06 02:05:05;;;;;;;1.10;1.00;;;;;;;;;;4912593;28;20740;-75
2022/08/06 02:07:35;;;;;;;1.87;0.80;;;;;;;;;;4924152;28;20270;-75
2022/08/06 02:10:02;;;;;;;1.60;0.97;;;;;;;;;;4907362;29;20659;-75
2022/08/06 02:12:28;;;;;;;1.60;1.00;;;;;;;;;;4920822;29;20579;-74
2022/08/06 02:14:56;;;;;;;0.90;0.70;;;;;;;;;;4930991;29;20230;-73
2022/08/06 02:17:24;;;;;;;3.13;1.00;;;;;;;;;;4921423;28;21230;-73
2022/08/06 02:19:50;;;;;;;1.60;1.00;;;;;;;;;;4919408;29;20262;-75
2022/08/06 02:22:21;;;;;;;1.70;1.10;;;;;;;;;;4907107;28;20911;-74
2022/08/06 02:24:49;;;;;;;1.87;1.00;;;;;;;;;;4911521;29;20219;-74
2022/08/06 02:27:15;;;;;;;1.53;0.97;;;;;;;;;;4923491;28;20282;-74
2022/08/06 02:29:41;;;;;;;2.40;1.00;;;;;;;;;;4903863;29;20239;-74
2022/08/06 02:32:06;;;;;;;2.07;1.00;;;;;;;;;;4931202;28;20318;-73
2022/08/06 02:34:34;;;;;;;2.40;0.80;;;;;;;;;;4925516;29;20215;-74
2022/08/06 02:37:13;;;;;;;1.87;1.17;;;;;;;;;;4903505;29;20224;-74
2022/08/06 02:39:41;;;;;;;3.40;1.10;;;;;;;;;;4902993;29;20313;-73
2022/08/06 02:42:27;;;;;;;1.10;1.00;;;;;;;;;;4928186;28;20403;-72
2022/08/06 02:45:13;;;;;;;1.27;1.10;;;;;;;;;;4945991;28;20238;-73
2022/08/06 02:47:40;;;;;;;0.90;0.90;;;;;;;;;;4940448;28;20728;-73
2022/08/06 02:50:08;;;;;;;1.50;1.00;;;;;;;;;;4936518;28;20263;-73
2022/08/06 02:52:39;;;;;;;1.63;1.10;;;;;;;;;;4913989;29;20306;-75
2022/08/06 02:55:16;;;;;;;1.73;1.13;;;;;;;;;;4945459;28;20238;-75
2022/08/06 02:57:47;;;;;;;1.53;1.17;;;;;;;;;;4932692;28;20712;-75
2022/08/06 03:00:13;;;;;;;1.43;1.27;;;;;;;;;;4926956;28;20238;-75
2022/08/06 03:02:39;;;;;;;1.73;1.27;;;;;;;;;;4919557;29;20281;-75
2022/08/06 03:05:06;;;;;;;1.37;0.90;;;;;;;;;;4922306;28;20258;-73
2022/08/06 03:07:32;;;;;;;2.73;1.37;;;;;;;;;;4921747;29;20230;-75
2022/08/06 03:10:00;;;;;;;3.23;1.20;;;;;;;;;;4918383;29;20671;-75
2022/08/06 03:12:26;;;;;;;4.27;1.30;;;;;;;;;;4924358;28;20269;-74
2022/08/06 03:14:54;;;;;;;1.87;1.47;;;;;;;;;;4924840;29;20223;-74
2022/08/06 03:17:22;;;;;;;4.17;1.37;;;;;;;;;;4910577;28;20239;-75
2022/08/06 03:19:50;;;;;;;1.63;1.30;;;;;;;;;;4924924;29;20238;-74
2022/08/06 03:22:16;;;;;;;1.43;1.30;;;;;;;;;;4913173;28;20285;-74
2022/08/06 03:24:42;;;;;;;3.23;1.40;;;;;;;;;;4933186;29;20317;-75
2022/08/06 03:27:09;;;;;;;1.30;1.20;;;;;;;;;;4932447;28;20310;-74
2022/08/06 03:29:35;;;;;;;1.40;1.30;;;;;;;;;;4932368;29;20230;-75
2022/08/06 03:32:05;;;;;;;1.70;1.30;;;;;;;;;;4924015;29;20681;-75
2022/08/06 03:34:30;;;;;;;1.67;1.30;;;;;;;;;;4944100;28;20211;-72
2022/08/06 03:36:56;;;;;;;2.13;1.27;;;;;;;;;;4914064;29;20301;-73
2022/08/06 03:39:24;;;;;;;2.87;1.30;;;;;;;;;;4931385;28;24491;-74
2022/08/06 03:41:49;;;;;;;1.40;1.30;;;;;;;;;;4947108;28;20238;-74
2022/08/06 03:44:18;;;;;;;2.20;1.30;;;;;;;;;;4911259;28;20227;-73
2022/08/06 03:46:46;;;;;;;2.97;1.30;;;;;;;;;;4925087;29;20266;-73
2022/08/06 03:49:26;;;;;;;3.47;1.30;;;;;;;;;;4905301;28;20289;-72
2022/08/06 03:51:52;;;;;;;1.40;1.30;;;;;;;;;;4908270;29;20250;-75
2022/08/06 03:54:23;;;;;;;1.53;1.40;;;;;;;;;;4916532;28;20319;-75
2022/08/06 03:56:50;;;;;;;2.50;1.73;;;;;;;;;;4928089;29;20250;-75
2022/08/06 03:59:19;;;;;;;1.53;1.43;;;;;;;;;;4923289;28;20235;-72
2022/08/06 04:01:47;;;;;;;2.03;1.30;;;;;;;;;;4910202;29;20226;-74
2022/08/06 04:04:12;;;;;;;1.13;1.00;;;;;;;;;;4908328;28;20263;-73
2022/08/06 04:06:41;;;;;;;1.57;1.10;;;;;;;;;;4940799;28;20222;-74
2022/08/06 04:09:07;;;;;;;1.27;1.17;;;;;;;;;;4931370;28;20234;-75
2022/08/06 04:11:32;;;;;;;1.67;1.10;;;;;;;;;;4910268;29;20233;-75
2022/08/06 04:13:58;;;;;;;1.83;1.03;;;;;;;;;;4915724;29;20230;-75
2022/08/06 04:16:26;;;;;;;1.10;1.00;;;;;;;;;;4927117;28;20314;-75
2022/08/06 04:18:55;;;;;;;1.60;1.13;;;;;;;;;;4938135;29;20231;-75
2022/08/06 04:21:23;;;;;;;1.30;1.20;;;;;;;;;;4909642;28;20238;-73
2022/08/06 04:23:54;;;;;;;2.47;1.13;;;;;;;;;;4925609;28;20227;-76
2022/08/06 04:26:24;;;;;;;0.97;0.97;;;;;;;;;;4942808;28;20233;-73
2022/08/06 04:28:52;;;;;;;1.03;0.90;;;;;;;;;;4902107;29;20345;-74
2022/08/06 04:31:20;;;;;;;1.40;1.30;;;;;;;;;;4923112;28;20219;-74
2022/08/06 04:33:45;;;;;;;1.87;1.33;;;;;;;;;;4934258;29;20786;-75
2022/08/06 04:36:11;;;;;;;2.20;1.50;;;;;;;;;;4910591;28;20227;-75
2022/08/06 04:38:39;;;;;;;5.03;2.00;;;;;;;;;;4917505;29;20285;-74
2022/08/06 04:41:04;;;;;;;2.10;1.90;;;;;;;;;;4909692;28;20235;-74
2022/08/06 04:43:30;;;;;;;2.20;2.00;;;;;;;;;;4942421;28;20238;-74
2022/08/06 04:45:58;;;;;;;2.07;1.93;;;;;;;;;;4927285;29;20235;-74
2022/08/06 04:48:24;;;;;;;2.00;1.90;;;;;;;;;;4915941;28;20292;-75
2022/08/06 04:50:49;;;;;;;2.27;2.03;;;;;;;;;;4911905;29;20251;-75
2022/08/06 04:53:17;;;;;;;2.53;1.87;;;;;;;;;;4930610;28;20593;-76
2022/08/06 04:55:43;;;;;;;9.37;1.90;;;;;;;;;;4909499;29;20234;-75
2022/08/06 04:58:10;;;;;;;2.23;1.73;;;;;;;;;;4894672;28;20306;-74
2022/08/06 05:00:43;;;;;;;2.00;1.80;;;;;;;;;;4926760;29;20724;-75
2022/08/06 05:03:12;;;;;;;3.63;1.83;;;;;;;;;;4915324;28;20231;-75
2022/08/06 05:05:39;;;;;;;4.87;1.80;;;;;;;;;;4924346;29;20243;-74
2022/08/06 05:08:09;;;;;;;2.37;1.70;;;;;;;;;;4925123;28;20232;-75
2022/08/06 05:11:00;;;;;;;5.20;2.00;;;;;;;;;;4903322;28;20219;-74
2022/08/06 05:13:29;;;;;;;3.87;1.70;;;;;;;;;;4924360;28;20214;-74
2022/08/06 05:15:56;;;;;;;3.00;1.57;;;;;;;;;;4900489;29;20238;-73
2022/08/06 05:18:30;;;;;;;1.93;1.40;;;;;;;;;;4945932;28;20230;-76
2022/08/06 05:20:55;;;;;;;2.60;1.50;;;;;;;;;;4931174;29;20245;-75
2022/08/06 05:23:29;;;;;;;5.70;1.83;;;;;;;;;;4910844;28;20219;-74
2022/08/06 05:25:56;;;;;;;3.80;1.70;;;;;;;;;;4925517;28;20219;-76
2022/08/06 05:28:25;;;;;;;5.47;1.50;;;;;;;;;;4924776;28;20237;-75
2022/08/06 05:30:53;;;;;;;2.27;1.43;;;;;;;;;;4913712;29;20274;-75
2022/08/06 05:33:37;;;;;;;2.53;1.30;;;;;;;;;;4909566;28;20371;-76
2022/08/06 05:36:07;;;;;;;1.87;1.37;;;;;;;;;;4899932;28;20243;-77
2022/08/06 05:38:36;;;;;;;2.93;1.47;;;;;;;;;;4947436;28;20297;-75
2022/08/06 05:41:03;;;;;;;1.57;1.47;;;;;;;;;;4920862;29;20255;-75
2022/08/06 05:43:33;;;;;;;2.27;1.40;;;;;;;;;;4928370;28;20801;-76
2022/08/06 05:46:01;;;;;;;1.63;1.30;;;;;;;;;;4925037;29;20278;-77
2022/08/06 05:48:28;;;;;;;2.40;1.23;;;;;;;;;;4911013;29;20227;-75
2022/08/06 05:50:55;;;;;;;1.90;1.13;;;;;;;;;;4925298;29;20286;-75
2022/08/06 05:53:36;;;;;;;1.50;1.10;;;;;;;;;;4915815;28;20218;-75
2022/08/06 05:56:05;;;;;;;3.57;1.30;;;;;;;;;;4931019;29;20230;-75
2022/08/06 05:58:45;;;;;;;2.30;0.93;;;;;;;;;;4919311;29;20294;-76
2022/08/06 06:01:13;;;;;;;3.07;1.20;;;;;;;;;;4924847;28;20243;-75
2022/08/06 06:03:39;;;;;;;1.00;0.90;;;;;;;;;;4928121;29;20764;-76
2022/08/06 06:06:05;;;;;;;3.50;1.30;;;;;;;;;;4930006;28;20721;-75
2022/08/06 06:08:34;;;;;;;1.40;1.10;;;;;;;;;;4905168;29;20254;-76
2022/08/06 06:11:04;;;;;;;1.60;0.85;;;;;;;;;;4913159;29;20319;-76
2022/08/06 06:13:30;;;;;;;1.30;1.10;;;;;;;;;;4924198;28;20310;-76
2022/08/06 06:16:26;;;;;;;2.20;0.90;;;;;;;;;;4940489;28;20222;-76
2022/08/06 06:19:01;;;;;;;2.20;1.10;;;;;;;;;;4928257;29;20370;-76
2022/08/06 06:21:54;;;;;;;4.57;1.23;;;;;;;;;;4901380;29;20230;-76
2022/08/06 06:24:46;;;;;;;6.07;1.10;;;;;;;;;;4937229;28;20219;-76
2022/08/06 06:27:24;;;;;;;2.45;1.15;;;;;;;;;;4937741;28;20365;-77
2022/08/06 06:30:04;;;;;;;5.07;1.60;;;;;;;;;;4930736;29;20314;-76
2022/08/06 06:33:02;;;;;;;3.43;1.00;;;;;;;;;;4924624;29;20231;-76
2022/08/06 06:35:37;;;;;;;4.10;0.82;;;;;;;;;;4913167;28;20238;-79
2022/08/06 06:38:07;;;;;;;4.17;1.30;;;;;;;;;;4933072;28;20262;-78
2022/08/06 06:41:00;;;;;;;0.85;0.70;;;;;;;;;;4911727;29;20222;-78
2022/08/06 06:43:56;;;;;;;2.55;0.80;;;;;;;;;;4939745;28;20814;-78
2022/08/06 06:46:46;;;;;;;1.23;0.80;;;;;;;;;;4942208;28;20223;-78
2022/08/06 06:49:18;;;;;;;0.98;0.73;;;;;;;;;;4908149;28;20230;-78
2022/08/06 06:51:48;;;;;;;13.45;3.15;;;;;;;;;;4908628;29;20214;-77
2022/08/06 06:54:22;;;;;;;2.30;1.00;;;;;;;;;;4931148;28;20226;-77
2022/08/06 06:56:49;;;;;;;2.80;0.93;;;;;;;;;;4937521;28;20229;-79
2022/08/06 06:59:33;;;;;;;2.50;0.77;;;;;;;;;;4913875;28;20237;-79
2022/08/06 07:02:12;;;;;;;3.15;0.77;;;;;;;;;;4968146;28;20230;-77
2022/08/06 07:04:41;;;;;;;1.70;0.60;;;;;;;;;;4927492;29;20612;-78
2022/08/06 07:07:07;;;;;;;1.73;0.70;;;;;;;;;;4914595;28;20227;-77
2022/08/06 07:09:35;;;;;;;0.75;0.50;;;;;;;;;;4927423;29;20232;-77
2022/08/06 07:12:01;;;;;;;0.60;0.52;;;;;;;;;;4930586;29;20234;-78
2022/08/06 07:14:26;;;;;;;2.72;0.60;;;;;;;;;;4918326;29;20233;-77
2022/08/06 07:16:55;;;;;;;0.98;0.73;;;;;;;;;;4935533;29;20348;-79
2022/08/06 07:19:22;;;;;;;8.98;0.82;;;;;;;;;;4948239;28;20294;-78
2022/08/06 07:21:51;;;;;;;0.93;0.60;;;;;;;;;;4949536;29;20628;-79
2022/08/06 07:24:17;;;;;;;1.00;0.50;;;;;;;;;;4936807;28;20314;-77
2022/08/06 07:26:48;;;;;;;2.45;0.60;;;;;;;;;;4932521;29;20229;-78
2022/08/06 07:29:17;;;;;;;1.05;0.50;;;;;;;;;;4943656;28;20385;-77
2022/08/06 07:31:47;;;;;;;1.65;0.50;;;;;;;;;;4932338;29;20748;-77
2022/08/06 07:34:14;;;;;;;1.75;0.55;;;;;;;;;;4914129;28;20707;-77
2022/08/06 07:36:45;;;;;;;0.95;0.57;;;;;;;;;;4930007;29;20974;-78
2022/08/06 07:39:14;;;;;;;0.70;0.50;;;;;;;;;;4928338;28;20222;-77
2022/08/06 07:41:40;;;;;;;1.95;0.68;;;;;;;;;;4923620;29;20223;-76
2022/08/06 07:44:11;;;;;;;1.08;0.60;;;;;;;;;;4940106;28;20767;-77
2022/08/06 07:46:50;;;;;;;1.27;0.60;;;;;;;;;;4917484;29;20230;-77
2022/08/06 07:49:23;;;;;;;0.90;0.55;;;;;;;;;;4925413;28;20302;-75
2022/08/06 07:51:54;;;;;;;4.30;0.75;;;;;;;;;;4912290;29;20246;-75
2022/08/06 07:54:29;;;;;;;2.65;0.52;;;;;;;;;;4944342;28;20276;-76
2022/08/06 07:56:57;;;;;;;1.33;0.70;;;;;;;;;;4917029;29;20223;-75
2022/08/06 07:59:25;;;;;;;2.65;0.55;;;;;;;;;;4921482;28;20603;-76
2022/08/06 08:01:51;;;;;;;5.20;0.88;;;;;;;;;;4940346;28;20230;-75
2022/08/06 08:07:06;;;;;;;0.75;0.57;;;;;;;;;;4928128;28;20227;-76
2022/08/06 08:09:32;;;;;;;4.18;0.70;;;;;;;;;;4927219;28;20700;-76
2022/08/06 08:12:00;;;;;;;2.05;0.60;;;;;;;;;;4928887;29;20226;-76
2022/08/06 08:14:26;;;;;;;0.50;0.40;;;;;;;;;;4915497;28;20251;-73
2022/08/06 08:16:51;;;;;;;1.58;0.70;;;;;;;;;;4911184;29;20759;-74
2022/08/06 08:19:22;;;;;;;1.40;0.70;;;;;;;;;;4943123;28;20690;-73
2022/08/06 08:21:51;;;;;;;0.93;0.47;;;;;;;;;;4922756;29;20307;-75
2022/08/06 08:24:16;;;;;;;0.50;0.50;;;;;;;;;;4917202;28;20218;-77
2022/08/06 08:26:42;;;;;;;1.20;0.60;;;;;;;;;;4931966;29;20219;-77
2022/08/06 08:29:09;;;;;;;1.45;0.60;;;;;;;;;;4925583;28;20234;-76
2022/08/06 08:31:35;;;;;;;1.52;0.52;;;;;;;;;;4940395;29;20229;-74
2022/08/06 08:34:01;;;;;;;1.58;0.70;;;;;;;;;;4926725;29;20293;-75
2022/08/06 08:36:29;;;;;;;1.73;0.60;;;;;;;;;;4925779;29;20266;-76
2022/08/06 08:38:57;;;;;;;3.58;0.70;;;;;;;;;;4941373;28;20226;-74
2022/08/06 08:41:35;;;;;;;1.00;0.40;;;;;;;;;;4926288;28;20287;-76
2022/08/06 08:44:05;;;;;;;0.52;0.50;;;;;;;;;;4927408;28;20305;-75
2022/08/06 08:46:38;;;;;;;1.23;0.63;;;;;;;;;;4931996;29;20310;-73
2022/08/06 08:49:06;;;;;;;1.02;0.52;;;;;;;;;;4931468;28;20231;-74
2022/08/06 08:51:34;;;;;;;1.25;0.50;;;;;;;;;;4923823;29;20302;-74
2022/08/06 08:54:00;;;;;;;1.63;0.43;;;;;;;;;;4940755;28;20228;-73
2022/08/06 08:56:26;;;;;;;1.38;0.38;;;;;;;;;;4917091;28;20294;-74
2022/08/06 08:58:51;;;;;;;1.50;0.60;;;;;;;;;;4926436;29;20302;-73
2022/08/06 09:01:17;;;;;;;0.50;0.50;;;;;;;;;;4924254;28;20228;-73
2022/08/06 09:03:43;;;;;;;2.85;0.60;;;;;;;;;;4943618;28;20235;-74
2022/08/06 09:06:08;;;;;;;2.05;0.60;;;;;;;;;;4906670;28;20222;-75
2022/08/06 09:08:36;;;;;;;5.35;1.05;;;;;;;;;;4936093;29;20286;-76
2022/08/06 09:11:01;;;;;;;0.77;0.50;;;;;;;;;;4946003;28;20243;-78
2022/08/06 09:13:27;;;;;;;0.95;0.40;;;;;;;;;;4941094;28;20296;-75
2022/08/06 09:15:55;;;;;;;1.75;0.43;;;;;;;;;;4926530;29;20220;-77
2022/08/06 09:18:23;;;;;;;0.65;0.40;;;;;;;;;;4911472;28;20231;-76
2022/08/06 09:20:49;;;;;;;1.70;0.57;;;;;;;;;;4928759;29;20222;-76
2022/08/06 09:23:17;;;;;;;0.98;0.35;;;;;;;;;;4914377;28;20794;-78
2022/08/06 09:25:47;;;;;;;2.53;0.50;;;;;;;;;;4917240;29;20239;-76
2022/08/06 09:28:40;;;;;;;1.33;0.50;;;;;;;;;;4926775;28;20222;-77
2022/08/06 09:31:13;;;;;;;1.75;0.50;;;;;;;;;;4925758;28;20742;-75
2022/08/06 09:33:41;;;;;;;0.40;0.30;;;;;;;;;;4946187;28;20230;-76
2022/08/06 09:36:13;;;;;;;0.70;0.47;;;;;;;;;;4946139;28;20378;-74
2022/08/06 09:38:47;;;;;;;0.40;0.40;;;;;;;;;;4942507;28;20720;-74
2022/08/06 09:41:16;;;;;;;0.90;0.47;;;;;;;;;;4939034;28;21392;-76
2022/08/06 09:43:43;;;;;;;0.85;0.50;;;;;;;;;;4929895;29;20219;-74
2022/08/06 09:46:09;;;;;;;0.70;0.40;;;;;;;;;;4911513;28;20222;-75
2022/08/06 09:48:35;;;;;;;0.65;0.40;;;;;;;;;;4930473;29;20598;-75
2022/08/06 09:51:03;;;;;;;0.60;0.30;;;;;;;;;;4927319;29;20598;-76
2022/08/06 09:53:28;;;;;;;0.40;0.40;;;;;;;;;;4926979;28;20326;-79
2022/08/06 09:55:55;;;;;;;0.68;0.40;;;;;;;;;;4909625;29;20235;-77
2022/08/06 09:58:32;;;;;;;0.32;0.32;;;;;;;;;;4923388;28;20223;-75
2022/08/06 10:01:17;;;;;;;2.42;0.55;;;;;;;;;;4934552;29;20219;-78
2022/08/06 10:03:46;;;;;;;0.73;0.40;;;;;;;;;;4961111;28;20230;-75
2022/08/06 10:06:20;;;;;;;0.63;0.40;;;;;;;;;;4912179;28;20214;-75
2022/08/06 10:08:50;;;;;;;0.60;0.30;;;;;;;;;;4931079;28;20226;-76
2022/08/06 10:11:31;;;;;;;1.20;0.32;;;;;;;;;;4906426;28;20273;-78
2022/08/06 10:13:59;;;;;;;2.55;0.40;;;;;;;;;;4928071;28;20290;-77
2022/08/06 10:16:28;;;;;;;0.98;0.50;;;;;;;;;;4926071;28;20229;-79
2022/08/06 10:18:53;;;;;;;0.30;0.30;;;;;;;;;;4917209;29;20241;-78
2022/08/06 10:21:24;;;;;;;2.38;0.47;;;;;;;;;;4910489;28;20211;-78
2022/08/06 10:24:10;;;;;;;2.22;0.43;;;;;;;;;;4932539;28;20231;-78
2022/08/06 10:26:35;;;;;;;1.20;0.47;;;;;;;;;;4925512;29;20242;-78
2022/08/06 10:29:03;;;;;;;0.30;0.30;;;;;;;;;;4938432;28;20242;-76
2022/08/06 10:31:31;;;;;;;1.20;0.50;;;;;;;;;;4929221;29;20242;-78
2022/08/06 10:34:04;;;;;;;0.68;0.40;;;;;;;;;;4910502;29;20223;-79
2022/08/06 10:36:55;;;;;;;1.38;0.40;;;;;;;;;;4925517;28;20227;-76
2022/08/06 10:39:38;;;;;;;1.08;0.52;;;;;;;;;;4928972;28;20306;-77
2022/08/06 10:42:09;;;;;;;2.47;0.50;;;;;;;;;;4945368;28;20234;-78
2022/08/06 10:44:34;;;;;;;0.50;0.40;;;;;;;;;;4927994;29;20345;-77
2022/08/06 10:47:00;;;;;;;2.55;0.38;;;;;;;;;;4905012;29;20219;-75
2022/08/06 10:49:28;;;;;;;1.42;0.57;;;;;;;;;;4906469;28;20585;-77
2022/08/06 10:51:56;;;;;;;0.40;0.40;;;;;;;;;;4923364;29;20223;-77
2022/08/06 10:54:21;;;;;;;1.13;0.43;;;;;;;;;;4909637;28;20223;-76
2022/08/06 10:56:48;;;;;;;1.23;0.40;;;;;;;;;;4906691;29;20223;-76
2022/08/06 10:59:18;;;;;;;0.40;0.38;;;;;;;;;;4938500;28;20219;-74
2022/08/06 11:01:49;;;;;;;0.70;0.30;;;;;;;;;;4908978;29;20223;-76
2022/08/06 11:04:21;;;;;;;0.85;0.40;;;;;;;;;;4928768;28;20218;-76
2022/08/06 11:06:58;;;;;;;1.25;0.30;;;;;;;;;;4939772;28;20222;-77
2022/08/06 11:10:01;;;;;;;0.90;0.40;;;;;;;;;;4944939;28;20253;-78
2022/08/06 11:12:52;;;;;;;0.35;0.30;;;;;;;;;;4944837;28;20294;-75
2022/08/06 11:15:20;;;;;;;1.73;0.95;;;;;;;;;;4938674;28;20247;-76
2022/08/06 11:18:02;;;;;;;0.77;0.40;;;;;;;;;;4901943;29;20653;-76
2022/08/06 11:20:39;;;;;;;1.20;0.40;;;;;;;;;;4941436;28;20226;-75
2022/08/06 11:23:13;;;;;;;1.85;0.50;;;;;;;;;;4923352;28;20606;-75
2022/08/06 11:26:12;;;;;;;0.20;0.20;;;;;;;;;;4944773;29;20250;-76
2022/08/06 11:28:39;;;;;;;1.02;0.50;;;;;;;;;;4913277;29;20313;-77
2022/08/06 11:31:28;;;;;;;0.73;0.30;;;;;;;;;;4939518;28;20235;-78
2022/08/06 11:34:04;;;;;;;1.63;0.30;;;;;;;;;;4945185;28;20239;-78
2022/08/06 11:36:52;;;;;;;0.70;0.47;;;;;;;;;;4923291;29;20222;-77
2022/08/06 11:39:20;;;;;;;2.00;0.40;;;;;;;;;;4949936;28;20226;-76
2022/08/06 11:41:49;;;;;;;0.35;0.20;;;;;;;;;;4939496;28;20303;-76
2022/08/06 11:44:17;;;;;;;0.50;0.50;;;;;;;;;;4942587;28;20676;-77
2022/08/06 11:46:47;;;;;;;0.80;0.50;;;;;;;;;;4916130;29;20237;-78
2022/08/06 11:49:39;;;;;;;0.40;0.30;;;;;;;;;;4932488;28;20282;-76
2022/08/06 11:52:05;;;;;;;0.65;0.40;;;;;;;;;;4927660;28;20281;-77
2022/08/06 11:54:38;;;;;;;0.52;0.40;;;;;;;;;;4911910;29;20222;-75
2022/08/06 11:57:06;;;;;;;1.58;0.82;;;;;;;;;;4962803;28;20285;-77
2022/08/06 11:59:36;;;;;;;1.65;0.50;;;;;;;;;;4943227;28;20230;-78
2022/08/06 12:02:06;;;;;;;0.68;0.32;;;;;;;;;;4940920;28;20353;-78
2022/08/06 12:04:35;;;;;;;1.40;0.45;;;;;;;;;;4942481;28;20273;-76
2022/08/06 12:07:20;;;;;;;1.75;0.50;;;;;;;;;;4950021;28;20815;-78
2022/08/06 12:09:58;;;;;;;2.60;0.45;;;;;;;;;;4945931;28;20266;-76
2022/08/06 12:12:24;;;;;;;0.40;0.30;;;;;;;;;;4923860;28;20745;-76
2022/08/06 12:14:50;;;;;;;0.80;0.40;;;;;;;;;;4946540;28;20229;-76
2022/08/06 12:17:17;;;;;;;0.82;0.30;;;;;;;;;;4946782;28;20226;-72
2022/08/06 12:19:49;;;;;;;2.53;0.60;;;;;;;;;;4901143;29;20239;-74
2022/08/06 12:22:20;;;;;;;0.95;0.50;;;;;;;;;;4932898;28;20226;-75
2022/08/06 12:24:50;;;;;;;0.82;0.40;;;;;;;;;;4943458;28;20223;-74
2022/08/06 12:27:22;;;;;;;1.67;0.68;;;;;;;;;;4933283;28;20285;-76
2022/08/06 12:29:50;;;;;;;0.73;0.50;;;;;;;;;;4946633;28;20249;-75
2022/08/06 12:32:23;;;;;;;2.25;0.40;;;;;;;;;;4915474;28;20241;-76
2022/08/06 12:34:54;;;;;;;1.98;0.50;;;;;;;;;;4915801;29;20348;-77
2022/08/06 12:37:41;;;;;;;0.60;0.32;;;;;;;;;;4930551;28;20228;-76
2022/08/06 12:40:29;;;;;;;0.75;0.40;;;;;;;;;;4928009;28;20769;-77
2022/08/06 12:43:00;;;;;;;2.78;0.35;;;;;;;;;;4911995;29;20259;-77
2022/08/06 12:45:31;;;;;;;0.55;0.30;;;;;;;;;;4960287;28;20313;-77
2022/08/06 12:48:06;;;;;;;0.40;0.30;;;;;;;;;;4912896;29;20309;-76
2022/08/06 12:50:34;;;;;;;0.80;0.30;;;;;;;;;;4939194;28;20238;-76
2022/08/06 12:53:10;;;;;;;0.70;0.30;;;;;;;;;;4943407;28;20235;-75
2022/08/06 12:55:49;;;;;;;0.40;0.30;;;;;;;;;;4927776;29;20233;-75
2022/08/06 12:58:18;;;;;;;1.10;0.40;;;;;;;;;;4944376;28;20302;-76
2022/08/06 13:00:47;;;;;;;1.13;0.30;;;;;;;;;;4889973;29;20234;-76
2022/08/06 13:03:12;;;;;;;0.20;0.20;;;;;;;;;;4909755;28;20238;-74
2022/08/06 13:05:38;;;;;;;0.88;0.40;;;;;;;;;;4940558;28;20235;-77
2022/08/06 13:08:03;;;;;;;0.30;0.30;;;;;;;;;;4918976;28;20235;-76
2022/08/06 13:10:34;;;;;;;2.40;0.40;;;;;;;;;;4930570;29;20289;-73
2022/08/06 13:13:04;;;;;;;1.33;0.40;;;;;;;;;;4928446;29;20226;-77
2022/08/06 13:15:30;;;;;;;0.38;0.30;;;;;;;;;;4928191;29;20234;-76
2022/08/06 13:18:12;;;;;;;0.85;0.38;;;;;;;;;;4926302;28;20242;-76
2022/08/06 13:20:45;;;;;;;0.70;0.40;;;;;;;;;;4943305;28;20277;-77
2022/08/06 13:23:14;;;;;;;0.88;0.38;;;;;;;;;;4916113;28;20222;-77
2022/08/06 13:25:43;;;;;;;0.25;0.25;;;;;;;;;;4923400;29;20684;-76
2022/08/06 13:28:17;;;;;;;0.30;0.30;;;;;;;;;;4906347;28;20694;-77
2022/08/06 13:30:45;;;;;;;1.30;0.40;;;;;;;;;;4938710;29;20250;-78
2022/08/06 13:33:19;;;;;;;1.25;0.40;;;;;;;;;;4911483;28;20701;-77
2022/08/06 13:35:45;;;;;;;0.30;0.30;;;;;;;;;;4898053;29;20222;-76
2022/08/06 13:38:27;;;;;;;0.47;0.32;;;;;;;;;;4911575;28;20266;-76
2022/08/06 13:40:53;;;;;;;0.60;0.50;;;;;;;;;;4931938;29;20595;-77
2022/08/06 13:43:21;;;;;;;0.80;0.32;;;;;;;;;;4908212;28;20231;-76
2022/08/06 13:45:47;;;;;;;0.40;0.32;;;;;;;;;;4923261;29;20234;-75
2022/08/06 13:48:13;;;;;;;1.05;0.40;;;;;;;;;;4931123;28;20625;-75
2022/08/06 13:50:40;;;;;;;1.50;0.57;;;;;;;;;;4919914;29;20242;-74
2022/08/06 13:53:08;;;;;;;1.10;0.65;;;;;;;;;;4925686;28;20227;-75
2022/08/06 13:55:34;;;;;;;0.73;0.40;;;;;;;;;;4928042;29;20707;-76
2022/08/06 13:58:02;;;;;;;2.53;0.45;;;;;;;;;;4923866;29;20236;-75
2022/08/06 14:00:28;;;;;;;0.82;0.50;;;;;;;;;;4910919;29;20893;-76
2022/08/06 14:02:56;;;;;;;0.47;0.47;;;;;;;;;;4941629;29;20246;-76
2022/08/06 14:05:22;;;;;;;1.67;0.50;;;;;;;;;;4912590;28;20219;-75
2022/08/06 14:07:50;;;;;;;0.52;0.50;;;;;;;;;;4939296;29;20228;-78
2022/08/06 14:10:18;;;;;;;0.75;0.63;;;;;;;;;;4910168;28;20235;-75
2022/08/06 14:13:15;;;;;;;0.50;0.40;;;;;;;;;;4908485;29;20641;-76
2022/08/06 14:15:31;;;;;;;0.45;0.32;;;;;;;;;;4918856;28;20237;-74
2022/08/06 14:18:02;;;;;;;0.80;0.30;;;;;;;;;;4926395;29;20227;-73
2022/08/06 14:20:33;;;;;;;0.70;0.40;;;;;;;;;;4947543;28;20231;-75
2022/08/06 14:22:58;;;;;;;1.38;0.50;;;;;;;;;;4910169;29;20241;-75
2022/08/06 14:25:24;;;;;;;1.27;0.52;;;;;;;;;;4904860;28;20646;-76
2022/08/06 14:27:50;;;;;;;0.85;0.73;;;;;;;;;;4910861;29;20254;-75
2022/08/06 14:30:16;;;;;;;0.50;0.40;;;;;;;;;;4930080;28;20290;-75
2022/08/06 14:32:41;;;;;;;1.13;0.40;;;;;;;;;;4905231;29;20227;-74
2022/08/06 14:35:10;;;;;;;1.15;0.50;;;;;;;;;;4927762;28;20222;-75
2022/08/06 14:37:35;;;;;;;1.23;0.45;;;;;;;;;;4919632;29;20639;-75
2022/08/06 14:40:04;;;;;;;0.95;0.60;;;;;;;;;;4938017;28;20227;-74
2022/08/06 14:45:16;;;;;;;1.15;0.52;;;;;;;;;;4932134;28;20234;-74
2022/08/06 14:47:44;;;;;;;2.33;0.40;;;;;;;;;;4940468;28;20231;-74
2022/08/06 14:50:14;;;;;;;0.80;0.40;;;;;;;;;;4929184;28;20238;-75
2022/08/06 14:52:43;;;;;;;1.23;0.40;;;;;;;;;;4929873;29;20238;-76
2022/08/06 14:55:11;;;;;;;0.82;0.50;;;;;;;;;;4937213;28;20239;-75
2022/08/06 14:57:39;;;;;;;0.68;0.50;;;;;;;;;;4914547;29;20701;-76
2022/08/06 15:00:08;;;;;;;2.03;0.50;;;;;;;;;;4939137;28;20273;-78
2022/08/06 15:02:36;;;;;;;2.20;0.40;;;;;;;;;;4909950;29;20218;-76
2022/08/06 15:05:07;;;;;;;0.88;0.60;;;;;;;;;;4931105;28;20723;-76
2022/08/06 15:07:33;;;;;;;1.00;0.50;;;;;;;;;;4924874;29;20712;-76
2022/08/06 15:10:00;;;;;;;0.82;0.40;;;;;;;;;;4925211;29;20239;-76